Goldboro, Canada
Current Conditions -  °F | °C
As of 11:00 AM on Friday 31 Oct 2014 (Local Time) from CYPD Reporting Station
Overcast Overcast  
Wind Chill: 45°   Ceiling: 4100
Heat Index: 48°   Visibility: 9mi
Dew Point: 34°   Wind: 8mph
Humidity: 57%   Direction: 300°WNW
Pressure: 30.03"   Gusts: NA
Location:  45.18°N, 61.65°W
Report Text: CYPD 311400Z AUTO 30007KT 270V330 9SM OVC041 09/01 A3003 RMK SLP174
Loading
Personal Weather Stations






























Interactive Weather Map New forecast layout! Learn more

10-Day Weather Forecast

Advertisements
Track Severe Weather on mobile